sensor_id;sensor_type;location;lat;lon;timestamp;P1;durP1;ratioP1;P2;durP2;ratioP2
49041;SDS011;34859;51.608;11.462;2022-08-06T00:00:43;1.25;;;0.43;;
49041;SDS011;34859;51.608;11.462;2022-08-06T00:03:27;0.50;;;0.40;;
49041;SDS011;34859;51.608;11.462;2022-08-06T00:06:11;1.50;;;0.43;;
49041;SDS011;34859;51.608;11.462;2022-08-06T00:08:55;2.45;;;0.40;;
49041;SDS011;34859;51.608;11.462;2022-08-06T00:11:39;0.60;;;0.30;;
49041;SDS011;34859;51.608;11.462;2022-08-06T00:14:23;0.70;;;0.40;;
49041;SDS011;34859;51.608;11.462;2022-08-06T00:17:04;0.80;;;0.50;;
49041;SDS011;34859;51.608;11.462;2022-08-06T00:19:48;0.63;;;0.63;;
49041;SDS011;34859;51.608;11.462;2022-08-06T00:22:32;2.22;;;0.35;;
49041;SDS011;34859;51.608;11.462;2022-08-06T00:25:16;2.20;;;0.50;;
49041;SDS011;34859;51.608;11.462;2022-08-06T00:28:01;0.40;;;0.30;;
49041;SDS011;34859;51.608;11.462;2022-08-06T00:30:42;0.95;;;0.38;;
49041;SDS011;34859;51.608;11.462;2022-08-06T00:33:26;1.03;;;0.40;;
49041;SDS011;34859;51.608;11.462;2022-08-06T00:36:10;0.55;;;0.30;;
49041;SDS011;34859;51.608;11.462;2022-08-06T00:38:55;1.65;;;0.40;;
49041;SDS011;34859;51.608;11.462;2022-08-06T00:41:43;0.40;;;0.20;;
49041;SDS011;34859;51.608;11.462;2022-08-06T00:44:28;1.20;;;0.35;;
49041;SDS011;34859;51.608;11.462;2022-08-06T00:47:12;0.88;;;0.30;;
49041;SDS011;34859;51.608;11.462;2022-08-06T00:49:56;0.50;;;0.50;;
49041;SDS011;34859;51.608;11.462;2022-08-06T00:52:40;1.92;;;0.40;;
49041;SDS011;34859;51.608;11.462;2022-08-06T00:55:24;1.33;;;0.23;;
49041;SDS011;34859;51.608;11.462;2022-08-06T00:58:08;1.05;;;0.35;;
49041;SDS011;34859;51.608;11.462;2022-08-06T01:00:52;1.65;;;0.50;;
49041;SDS011;34859;51.608;11.462;2022-08-06T01:03:37;1.10;;;0.40;;
49041;SDS011;34859;51.608;11.462;2022-08-06T01:06:21;1.85;;;0.52;;
49041;SDS011;34859;51.608;11.462;2022-08-06T01:09:02;2.63;;;0.50;;
49041;SDS011;34859;51.608;11.462;2022-08-06T01:11:46;2.17;;;0.47;;
49041;SDS011;34859;51.608;11.462;2022-08-06T01:14:31;1.15;;;0.30;;
49041;SDS011;34859;51.608;11.462;2022-08-06T01:17:30;1.27;;;0.38;;
49041;SDS011;34859;51.608;11.462;2022-08-06T01:23:58;1.23;;;0.43;;
49041;SDS011;34859;51.608;11.462;2022-08-06T01:30:21;2.92;;;0.45;;
49041;SDS011;34859;51.608;11.462;2022-08-06T01:33:10;1.88;;;0.45;;
49041;SDS011;34859;51.608;11.462;2022-08-06T01:36:17;1.75;;;0.52;;
49041;SDS011;34859;51.608;11.462;2022-08-06T01:39:16;4.32;;;0.80;;
49041;SDS011;34859;51.608;11.462;2022-08-06T01:42:02;1.05;;;0.30;;
49041;SDS011;34859;51.608;11.462;2022-08-06T01:44:49;4.15;;;0.80;;
49041;SDS011;34859;51.608;11.462;2022-08-06T01:47:35;3.40;;;0.55;;
49041;SDS011;34859;51.608;11.462;2022-08-06T01:50:20;1.60;;;0.40;;
49041;SDS011;34859;51.608;11.462;2022-08-06T01:53:21;3.83;;;0.57;;
49041;SDS011;34859;51.608;11.462;2022-08-06T01:56:08;1.98;;;0.40;;
49041;SDS011;34859;51.608;11.462;2022-08-06T01:58:55;1.55;;;0.43;;
49041;SDS011;34859;51.608;11.462;2022-08-06T02:01:40;1.48;;;0.40;;
49041;SDS011;34859;51.608;11.462;2022-08-06T02:07:11;1.25;;;0.38;;
49041;SDS011;34859;51.608;11.462;2022-08-06T02:09:55;1.20;;;0.35;;
49041;SDS011;34859;51.608;11.462;2022-08-06T02:12:40;2.38;;;0.40;;
49041;SDS011;34859;51.608;11.462;2022-08-06T02:15:28;1.67;;;0.60;;
49041;SDS011;34859;51.608;11.462;2022-08-06T02:18:13;2.13;;;0.30;;
49041;SDS011;34859;51.608;11.462;2022-08-06T02:20:58;1.90;;;0.38;;
49041;SDS011;34859;51.608;11.462;2022-08-06T02:23:46;0.63;;;0.50;;
49041;SDS011;34859;51.608;11.462;2022-08-06T02:26:32;0.77;;;0.30;;
49041;SDS011;34859;51.608;11.462;2022-08-06T02:29:18;1.50;;;0.40;;
49041;SDS011;34859;51.608;11.462;2022-08-06T02:32:01;0.80;;;0.50;;
49041;SDS011;34859;51.608;11.462;2022-08-06T02:34:42;1.42;;;0.60;;
49041;SDS011;34859;51.608;11.462;2022-08-06T02:37:29;1.43;;;0.63;;
49041;SDS011;34859;51.608;11.462;2022-08-06T02:40:25;3.50;;;0.50;;
49041;SDS011;34859;51.608;11.462;2022-08-06T02:43:17;1.45;;;0.50;;
49041;SDS011;34859;51.608;11.462;2022-08-06T02:46:13;1.13;;;0.22;;
49041;SDS011;34859;51.608;11.462;2022-08-06T02:49:09;0.32;;;0.30;;
49041;SDS011;34859;51.608;11.462;2022-08-06T02:51:59;1.05;;;0.40;;
49041;SDS011;34859;51.608;11.462;2022-08-06T02:54:48;2.90;;;0.68;;
49041;SDS011;34859;51.608;11.462;2022-08-06T02:57:38;1.00;;;0.35;;
49041;SDS011;34859;51.608;11.462;2022-08-06T03:00:24;0.38;;;0.38;;
49041;SDS011;34859;51.608;11.462;2022-08-06T03:03:11;1.13;;;0.40;;
49041;SDS011;34859;51.608;11.462;2022-08-06T03:05:54;5.72;;;0.57;;
49041;SDS011;34859;51.608;11.462;2022-08-06T03:08:42;2.35;;;0.40;;
49041;SDS011;34859;51.608;11.462;2022-08-06T03:11:29;1.63;;;0.22;;
49041;SDS011;34859;51.608;11.462;2022-08-06T03:14:18;3.35;;;0.50;;
49041;SDS011;34859;51.608;11.462;2022-08-06T03:17:05;7.05;;;1.13;;
49041;SDS011;34859;51.608;11.462;2022-08-06T03:19:51;1.88;;;0.40;;
49041;SDS011;34859;51.608;11.462;2022-08-06T03:22:36;0.60;;;0.30;;
49041;SDS011;34859;51.608;11.462;2022-08-06T03:25:22;0.50;;;0.40;;
49041;SDS011;34859;51.608;11.462;2022-08-06T03:28:08;0.93;;;0.40;;
49041;SDS011;34859;51.608;11.462;2022-08-06T03:30:53;3.25;;;0.63;;
49041;SDS011;34859;51.608;11.462;2022-08-06T03:33:38;1.38;;;0.55;;
49041;SDS011;34859;51.608;11.462;2022-08-06T03:36:20;1.38;;;0.40;;
49041;SDS011;34859;51.608;11.462;2022-08-06T03:39:06;1.45;;;0.35;;
49041;SDS011;34859;51.608;11.462;2022-08-06T03:41:52;0.82;;;0.52;;
49041;SDS011;34859;51.608;11.462;2022-08-06T03:44:37;1.08;;;0.55;;
49041;SDS011;34859;51.608;11.462;2022-08-06T03:47:23;1.77;;;0.40;;
49041;SDS011;34859;51.608;11.462;2022-08-06T03:50:18;0.85;;;0.70;;
49041;SDS011;34859;51.608;11.462;2022-08-06T03:53:07;0.60;;;0.50;;
49041;SDS011;34859;51.608;11.462;2022-08-06T03:55:57;3.17;;;0.50;;
49041;SDS011;34859;51.608;11.462;2022-08-06T03:58:43;1.17;;;0.43;;
49041;SDS011;34859;51.608;11.462;2022-08-06T04:01:29;0.65;;;0.55;;
49041;SDS011;34859;51.608;11.462;2022-08-06T04:04:18;3.65;;;0.60;;
49041;SDS011;34859;51.608;11.462;2022-08-06T04:07:03;1.73;;;0.68;;
49041;SDS011;34859;51.608;11.462;2022-08-06T04:09:49;0.52;;;0.40;;
49041;SDS011;34859;51.608;11.462;2022-08-06T04:12:33;1.60;;;0.50;;
49041;SDS011;34859;51.608;11.462;2022-08-06T04:15:18;1.48;;;0.60;;
49041;SDS011;34859;51.608;11.462;2022-08-06T04:18:04;4.45;;;0.70;;
49041;SDS011;34859;51.608;11.462;2022-08-06T04:20:51;2.53;;;0.50;;
49041;SDS011;34859;51.608;11.462;2022-08-06T04:23:38;2.70;;;0.40;;
49041;SDS011;34859;51.608;11.462;2022-08-06T04:26:22;2.25;;;0.90;;
49041;SDS011;34859;51.608;11.462;2022-08-06T04:29:08;0.90;;;0.57;;
49041;SDS011;34859;51.608;11.462;2022-08-06T04:31:55;0.57;;;0.40;;
49041;SDS011;34859;51.608;11.462;2022-08-06T04:34:40;1.35;;;0.95;;
49041;SDS011;34859;51.608;11.462;2022-08-06T04:37:26;0.70;;;0.38;;
49041;SDS011;34859;51.608;11.462;2022-08-06T04:40:11;0.73;;;0.50;;
49041;SDS011;34859;51.608;11.462;2022-08-06T04:42:56;2.30;;;0.45;;
49041;SDS011;34859;51.608;11.462;2022-08-06T04:45:40;2.72;;;0.52;;
49041;SDS011;34859;51.608;11.462;2022-08-06T04:48:26;1.23;;;0.50;;
49041;SDS011;34859;51.608;11.462;2022-08-06T04:51:11;3.38;;;0.70;;
49041;SDS011;34859;51.608;11.462;2022-08-06T04:53:55;5.72;;;0.82;;
49041;SDS011;34859;51.608;11.462;2022-08-06T04:56:37;3.40;;;0.50;;
49041;SDS011;34859;51.608;11.462;2022-08-06T04:59:21;1.20;;;0.40;;
49041;SDS011;34859;51.608;11.462;2022-08-06T05:02:05;2.17;;;0.60;;
49041;SDS011;34859;51.608;11.462;2022-08-06T05:04:49;0.73;;;0.60;;
49041;SDS011;34859;51.608;11.462;2022-08-06T05:07:39;1.30;;;0.80;;
49041;SDS011;34859;51.608;11.462;2022-08-06T05:10:25;1.75;;;0.60;;
49041;SDS011;34859;51.608;11.462;2022-08-06T05:13:13;2.10;;;0.80;;
49041;SDS011;34859;51.608;11.462;2022-08-06T05:16:01;2.83;;;0.60;;
49041;SDS011;34859;51.608;11.462;2022-08-06T05:18:50;2.38;;;0.73;;
49041;SDS011;34859;51.608;11.462;2022-08-06T05:21:38;1.52;;;0.70;;
49041;SDS011;34859;51.608;11.462;2022-08-06T05:24:24;3.78;;;0.90;;
49041;SDS011;34859;51.608;11.462;2022-08-06T05:27:10;7.45;;;1.35;;
49041;SDS011;34859;51.608;11.462;2022-08-06T05:29:54;1.95;;;0.77;;
49041;SDS011;34859;51.608;11.462;2022-08-06T05:32:43;2.05;;;0.80;;
49041;SDS011;34859;51.608;11.462;2022-08-06T05:35:28;3.17;;;1.00;;
49041;SDS011;34859;51.608;11.462;2022-08-06T05:38:13;2.50;;;0.83;;
49041;SDS011;34859;51.608;11.462;2022-08-06T05:40:56;3.88;;;1.17;;
49041;SDS011;34859;51.608;11.462;2022-08-06T05:43:42;4.57;;;1.08;;
49041;SDS011;34859;51.608;11.462;2022-08-06T05:52:13;1.52;;;0.50;;
49041;SDS011;34859;51.608;11.462;2022-08-06T05:55:08;7.82;;;0.75;;
49041;SDS011;34859;51.608;11.462;2022-08-06T05:58:03;2.00;;;0.68;;
49041;SDS011;34859;51.608;11.462;2022-08-06T06:00:51;3.45;;;0.60;;
49041;SDS011;34859;51.608;11.462;2022-08-06T06:03:37;1.40;;;0.52;;
49041;SDS011;34859;51.608;11.462;2022-08-06T06:06:23;2.33;;;0.55;;
49041;SDS011;34859;51.608;11.462;2022-08-06T06:09:07;2.00;;;0.47;;
49041;SDS011;34859;51.608;11.462;2022-08-06T06:11:52;5.30;;;0.50;;
49041;SDS011;34859;51.608;11.462;2022-08-06T06:14:37;2.15;;;0.60;;
49041;SDS011;34859;51.608;11.462;2022-08-06T06:17:30;1.90;;;0.73;;
49041;SDS011;34859;51.608;11.462;2022-08-06T06:20:18;4.25;;;0.80;;
49041;SDS011;34859;51.608;11.462;2022-08-06T06:23:17;1.85;;;0.40;;
49041;SDS011;34859;51.608;11.462;2022-08-06T06:32:15;3.85;;;0.75;;
49041;SDS011;34859;51.608;11.462;2022-08-06T06:41:21;3.38;;;0.50;;
49041;SDS011;34859;51.608;11.462;2022-08-06T06:44:36;3.08;;;0.68;;
49041;SDS011;34859;51.608;11.462;2022-08-06T06:47:27;3.13;;;0.50;;
49041;SDS011;34859;51.608;11.462;2022-08-06T06:50:34;3.90;;;0.70;;
49041;SDS011;34859;51.608;11.462;2022-08-06T06:53:20;2.53;;;0.50;;
49041;SDS011;34859;51.608;11.462;2022-08-06T06:56:09;3.75;;;0.60;;
49041;SDS011;34859;51.608;11.462;2022-08-06T06:59:01;7.60;;;0.60;;
49041;SDS011;34859;51.608;11.462;2022-08-06T07:01:50;3.15;;;0.32;;
49041;SDS011;34859;51.608;11.462;2022-08-06T07:04:36;1.70;;;0.70;;
49041;SDS011;34859;51.608;11.462;2022-08-06T07:07:22;3.75;;;0.52;;
49041;SDS011;34859;51.608;11.462;2022-08-06T07:10:09;0.82;;;0.50;;
49041;SDS011;34859;51.608;11.462;2022-08-06T07:12:55;1.63;;;0.45;;
49041;SDS011;34859;51.608;11.462;2022-08-06T07:15:38;3.35;;;0.60;;
49041;SDS011;34859;51.608;11.462;2022-08-06T07:18:24;4.03;;;0.85;;
49041;SDS011;34859;51.608;11.462;2022-08-06T07:21:11;2.03;;;0.70;;
49041;SDS011;34859;51.608;11.462;2022-08-06T07:23:57;3.55;;;0.63;;
49041;SDS011;34859;51.608;11.462;2022-08-06T07:26:42;2.70;;;0.57;;
49041;SDS011;34859;51.608;11.462;2022-08-06T07:29:28;2.15;;;0.52;;
49041;SDS011;34859;51.608;11.462;2022-08-06T07:32:10;3.38;;;0.45;;
49041;SDS011;34859;51.608;11.462;2022-08-06T07:37:41;2.05;;;0.40;;
49041;SDS011;34859;51.608;11.462;2022-08-06T07:40:38;1.73;;;0.30;;
49041;SDS011;34859;51.608;11.462;2022-08-06T07:43:31;2.40;;;0.30;;
49041;SDS011;34859;51.608;11.462;2022-08-06T07:46:25;4.25;;;0.50;;
49041;SDS011;34859;51.608;11.462;2022-08-06T07:49:13;1.30;;;0.40;;
49041;SDS011;34859;51.608;11.462;2022-08-06T07:52:00;1.80;;;0.50;;
49041;SDS011;34859;51.608;11.462;2022-08-06T07:54:45;4.75;;;0.43;;
49041;SDS011;34859;51.608;11.462;2022-08-06T08:00:14;4.15;;;0.50;;
49041;SDS011;34859;51.608;11.462;2022-08-06T08:02:59;1.98;;;0.70;;
49041;SDS011;34859;51.608;11.462;2022-08-06T08:06:03;9.10;;;1.25;;
49041;SDS011;34859;51.608;11.462;2022-08-06T08:09:08;1.95;;;0.50;;
49041;SDS011;34859;51.608;11.462;2022-08-06T08:11:52;3.33;;;0.43;;
49041;SDS011;34859;51.608;11.462;2022-08-06T08:14:39;2.72;;;0.60;;
49041;SDS011;34859;51.608;11.462;2022-08-06T08:17:23;5.53;;;1.15;;
49041;SDS011;34859;51.608;11.462;2022-08-06T08:22:53;1.10;;;0.32;;
49041;SDS011;34859;51.608;11.462;2022-08-06T08:25:37;2.38;;;0.45;;
49041;SDS011;34859;51.608;11.462;2022-08-06T08:28:21;1.95;;;0.50;;
49041;SDS011;34859;51.608;11.462;2022-08-06T08:31:05;2.70;;;0.60;;
49041;SDS011;34859;51.608;11.462;2022-08-06T08:36:35;1.52;;;0.40;;
49041;SDS011;34859;51.608;11.462;2022-08-06T08:39:19;3.83;;;0.60;;
49041;SDS011;34859;51.608;11.462;2022-08-06T08:42:04;2.95;;;0.57;;
49041;SDS011;34859;51.608;11.462;2022-08-06T08:45:01;3.22;;;0.60;;
49041;SDS011;34859;51.608;11.462;2022-08-06T08:47:47;2.13;;;0.40;;
49041;SDS011;34859;51.608;11.462;2022-08-06T08:50:34;4.40;;;0.50;;
49041;SDS011;34859;51.608;11.462;2022-08-06T08:56:03;2.80;;;0.70;;
49041;SDS011;34859;51.608;11.462;2022-08-06T08:58:46;2.60;;;0.40;;
49041;SDS011;34859;51.608;11.462;2022-08-06T09:01:31;1.60;;;0.40;;
49041;SDS011;34859;51.608;11.462;2022-08-06T09:04:18;0.75;;;0.60;;
49041;SDS011;34859;51.608;11.462;2022-08-06T09:07:02;2.60;;;0.47;;
49041;SDS011;34859;51.608;11.462;2022-08-06T09:09:47;1.17;;;0.28;;
49041;SDS011;34859;51.608;11.462;2022-08-06T09:15:15;2.10;;;0.35;;
49041;SDS011;34859;51.608;11.462;2022-08-06T09:17:59;1.63;;;0.32;;
49041;SDS011;34859;51.608;11.462;2022-08-06T09:20:44;1.48;;;0.47;;
49041;SDS011;34859;51.608;11.462;2022-08-06T09:23:28;1.27;;;0.30;;
49041;SDS011;34859;51.608;11.462;2022-08-06T09:26:12;1.52;;;0.30;;
49041;SDS011;34859;51.608;11.462;2022-08-06T09:28:56;1.65;;;0.35;;
49041;SDS011;34859;51.608;11.462;2022-08-06T09:31:40;1.27;;;0.30;;
49041;SDS011;34859;51.608;11.462;2022-08-06T09:34:31;3.15;;;0.40;;
49041;SDS011;34859;51.608;11.462;2022-08-06T09:37:14;3.03;;;0.82;;
49041;SDS011;34859;51.608;11.462;2022-08-06T09:40:12;1.20;;;0.20;;
49041;SDS011;34859;51.608;11.462;2022-08-06T09:42:58;0.40;;;0.25;;
49041;SDS011;34859;51.608;11.462;2022-08-06T09:45:39;1.25;;;0.60;;
49041;SDS011;34859;51.608;11.462;2022-08-06T09:48:28;2.42;;;0.77;;
49041;SDS011;34859;51.608;11.462;2022-08-06T09:51:20;0.90;;;0.20;;
49041;SDS011;34859;51.608;11.462;2022-08-06T09:54:06;1.00;;;0.28;;
49041;SDS011;34859;51.608;11.462;2022-08-06T09:56:56;1.92;;;0.40;;
49041;SDS011;34859;51.608;11.462;2022-08-06T09:59:47;4.93;;;0.30;;
49041;SDS011;34859;51.608;11.462;2022-08-06T10:02:32;1.60;;;0.25;;
49041;SDS011;34859;51.608;11.462;2022-08-06T10:05:17;0.95;;;0.30;;
49041;SDS011;34859;51.608;11.462;2022-08-06T10:10:48;0.82;;;0.25;;
49041;SDS011;34859;51.608;11.462;2022-08-06T10:13:34;0.57;;;0.20;;
49041;SDS011;34859;51.608;11.462;2022-08-06T10:19:15;2.20;;;0.50;;
49041;SDS011;34859;51.608;11.462;2022-08-06T10:22:04;0.45;;;0.20;;
49041;SDS011;34859;51.608;11.462;2022-08-06T10:24:54;2.90;;;0.20;;
49041;SDS011;34859;51.608;11.462;2022-08-06T10:27:39;2.80;;;0.50;;
49041;SDS011;34859;51.608;11.462;2022-08-06T10:30:24;0.98;;;0.30;;
49041;SDS011;34859;51.608;11.462;2022-08-06T10:33:11;0.73;;;0.30;;
49041;SDS011;34859;51.608;11.462;2022-08-06T10:36:03;0.60;;;0.25;;
49041;SDS011;34859;51.608;11.462;2022-08-06T10:38:53;1.90;;;0.20;;
49041;SDS011;34859;51.608;11.462;2022-08-06T10:41:39;0.77;;;0.20;;
49041;SDS011;34859;51.608;11.462;2022-08-06T10:44:26;1.38;;;0.30;;
49041;SDS011;34859;51.608;11.462;2022-08-06T10:47:12;2.30;;;0.35;;
49041;SDS011;34859;51.608;11.462;2022-08-06T10:49:56;3.50;;;0.30;;
49041;SDS011;34859;51.608;11.462;2022-08-06T10:52:41;1.85;;;0.20;;
49041;SDS011;34859;51.608;11.462;2022-08-06T10:55:30;2.30;;;0.50;;
49041;SDS011;34859;51.608;11.462;2022-08-06T10:58:14;0.88;;;0.30;;
49041;SDS011;34859;51.608;11.462;2022-08-06T11:01:00;0.50;;;0.20;;
49041;SDS011;34859;51.608;11.462;2022-08-06T11:04:04;1.80;;;0.30;;
49041;SDS011;34859;51.608;11.462;2022-08-06T11:15:56;0.85;;;0.25;;
49041;SDS011;34859;51.608;11.462;2022-08-06T11:18:56;0.65;;;0.10;;
49041;SDS011;34859;51.608;11.462;2022-08-06T11:21:46;0.85;;;0.10;;
49041;SDS011;34859;51.608;11.462;2022-08-06T11:24:31;1.92;;;0.13;;
49041;SDS011;34859;51.608;11.462;2022-08-06T11:30:43;1.58;;;0.15;;
49041;SDS011;34859;51.608;11.462;2022-08-06T11:36:25;1.73;;;0.68;;
49041;SDS011;34859;51.608;11.462;2022-08-06T11:39:11;0.47;;;0.20;;
49041;SDS011;34859;51.608;11.462;2022-08-06T11:41:59;0.50;;;0.20;;
49041;SDS011;34859;51.608;11.462;2022-08-06T11:44:59;0.57;;;0.10;;
49041;SDS011;34859;51.608;11.462;2022-08-06T11:48:04;1.70;;;0.10;;
49041;SDS011;34859;51.608;11.462;2022-08-06T11:50:50;1.27;;;0.43;;
49041;SDS011;34859;51.608;11.462;2022-08-06T11:53:37;1.17;;;0.23;;
49041;SDS011;34859;51.608;11.462;2022-08-06T11:56:22;1.35;;;0.20;;
49041;SDS011;34859;51.608;11.462;2022-08-06T11:59:12;2.47;;;0.20;;
49041;SDS011;34859;51.608;11.462;2022-08-06T12:01:58;0.45;;;0.30;;
49041;SDS011;34859;51.608;11.462;2022-08-06T12:04:44;1.60;;;0.20;;
49041;SDS011;34859;51.608;11.462;2022-08-06T12:07:28;2.80;;;0.30;;
49041;SDS011;34859;51.608;11.462;2022-08-06T12:10:18;0.40;;;0.15;;
49041;SDS011;34859;51.608;11.462;2022-08-06T12:12:59;0.20;;;0.10;;
49041;SDS011;34859;51.608;11.462;2022-08-06T12:15:43;1.70;;;0.33;;
49041;SDS011;34859;51.608;11.462;2022-08-06T12:18:26;1.35;;;0.30;;
49041;SDS011;34859;51.608;11.462;2022-08-06T12:21:10;0.88;;;0.40;;
49041;SDS011;34859;51.608;11.462;2022-08-06T12:23:55;2.08;;;0.20;;
49041;SDS011;34859;51.608;11.462;2022-08-06T12:26:40;1.83;;;0.20;;
49041;SDS011;34859;51.608;11.462;2022-08-06T12:29:29;1.45;;;0.20;;
49041;SDS011;34859;51.608;11.462;2022-08-06T12:32:20;0.52;;;0.10;;
49041;SDS011;34859;51.608;11.462;2022-08-06T12:35:12;1.00;;;0.30;;
49041;SDS011;34859;51.608;11.462;2022-08-06T12:37:54;3.25;;;0.20;;
49041;SDS011;34859;51.608;11.462;2022-08-06T12:40:38;0.60;;;0.20;;
49041;SDS011;34859;51.608;11.462;2022-08-06T12:43:23;0.73;;;0.32;;
49041;SDS011;34859;51.608;11.462;2022-08-06T12:46:08;2.63;;;0.20;;
49041;SDS011;34859;51.608;11.462;2022-08-06T12:48:52;1.92;;;0.30;;
49041;SDS011;34859;51.608;11.462;2022-08-06T12:51:38;0.70;;;0.30;;
49041;SDS011;34859;51.608;11.462;2022-08-06T12:54:27;2.43;;;0.30;;
49041;SDS011;34859;51.608;11.462;2022-08-06T12:57:19;1.85;;;0.30;;
49041;SDS011;34859;51.608;11.462;2022-08-06T13:00:06;2.43;;;0.20;;
49041;SDS011;34859;51.608;11.462;2022-08-06T13:02:52;1.13;;;0.40;;
49041;SDS011;34859;51.608;11.462;2022-08-06T13:05:34;1.65;;;0.20;;
49041;SDS011;34859;51.608;11.462;2022-08-06T13:08:18;2.28;;;0.20;;
49041;SDS011;34859;51.608;11.462;2022-08-06T13:11:00;0.73;;;0.20;;
49041;SDS011;34859;51.608;11.462;2022-08-06T13:13:47;0.60;;;0.30;;
49041;SDS011;34859;51.608;11.462;2022-08-06T13:16:40;0.52;;;0.30;;
49041;SDS011;34859;51.608;11.462;2022-08-06T13:19:23;0.93;;;0.60;;
49041;SDS011;34859;51.608;11.462;2022-08-06T13:22:08;3.38;;;0.40;;
49041;SDS011;34859;51.608;11.462;2022-08-06T13:25:13;1.65;;;0.40;;
49041;SDS011;34859;51.608;11.462;2022-08-06T13:28:09;0.68;;;0.22;;
49041;SDS011;34859;51.608;11.462;2022-08-06T13:30:54;3.20;;;0.30;;
49041;SDS011;34859;51.608;11.462;2022-08-06T13:33:39;1.15;;;0.25;;
49041;SDS011;34859;51.608;11.462;2022-08-06T13:36:24;1.17;;;0.20;;
49041;SDS011;34859;51.608;11.462;2022-08-06T13:39:21;0.80;;;0.20;;
49041;SDS011;34859;51.608;11.462;2022-08-06T13:42:14;0.47;;;0.20;;
49041;SDS011;34859;51.608;11.462;2022-08-06T13:44:57;0.63;;;0.20;;
49041;SDS011;34859;51.608;11.462;2022-08-06T13:47:42;0.40;;;0.20;;
49041;SDS011;34859;51.608;11.462;2022-08-06T13:50:26;2.00;;;0.40;;
49041;SDS011;34859;51.608;11.462;2022-08-06T13:53:11;0.50;;;0.10;;
49041;SDS011;34859;51.608;11.462;2022-08-06T13:55:55;0.68;;;0.32;;
49041;SDS011;34859;51.608;11.462;2022-08-06T13:58:39;0.40;;;0.20;;
49041;SDS011;34859;51.608;11.462;2022-08-06T14:01:21;0.73;;;0.30;;
49041;SDS011;34859;51.608;11.462;2022-08-06T14:04:02;1.05;;;0.20;;
49041;SDS011;34859;51.608;11.462;2022-08-06T14:06:49;0.30;;;0.20;;
49041;SDS011;34859;51.608;11.462;2022-08-06T14:09:34;1.50;;;0.63;;
49041;SDS011;34859;51.608;11.462;2022-08-06T14:12:15;2.40;;;0.30;;
49041;SDS011;34859;51.608;11.462;2022-08-06T14:14:56;0.75;;;0.17;;
49041;SDS011;34859;51.608;11.462;2022-08-06T14:17:41;0.75;;;0.10;;
49041;SDS011;34859;51.608;11.462;2022-08-06T14:20:27;1.23;;;0.28;;
49041;SDS011;34859;51.608;11.462;2022-08-06T14:23:12;2.53;;;0.10;;
49041;SDS011;34859;51.608;11.462;2022-08-06T14:25:57;0.68;;;0.20;;
49041;SDS011;34859;51.608;11.462;2022-08-06T14:31:26;0.50;;;0.20;;
49041;SDS011;34859;51.608;11.462;2022-08-06T14:34:10;0.73;;;0.20;;
49041;SDS011;34859;51.608;11.462;2022-08-06T14:36:54;0.53;;;0.20;;
49041;SDS011;34859;51.608;11.462;2022-08-06T14:39:39;2.67;;;0.40;;
49041;SDS011;34859;51.608;11.462;2022-08-06T14:42:23;1.98;;;0.10;;
49041;SDS011;34859;51.608;11.462;2022-08-06T14:45:26;0.80;;;0.17;;
49041;SDS011;34859;51.608;11.462;2022-08-06T14:48:07;0.63;;;0.10;;
49041;SDS011;34859;51.608;11.462;2022-08-06T14:50:51;1.13;;;0.10;;
49041;SDS011;34859;51.608;11.462;2022-08-06T14:53:36;2.10;;;0.17;;
49041;SDS011;34859;51.608;11.462;2022-08-06T14:56:20;0.73;;;0.13;;
49041;SDS011;34859;51.608;11.462;2022-08-06T14:59:04;1.77;;;0.30;;
49041;SDS011;34859;51.608;11.462;2022-08-06T15:01:48;1.50;;;0.23;;
49041;SDS011;34859;51.608;11.462;2022-08-06T15:04:34;0.10;;;0.10;;
49041;SDS011;34859;51.608;11.462;2022-08-06T15:07:18;1.17;;;0.20;;
49041;SDS011;34859;51.608;11.462;2022-08-06T15:10:03;0.43;;;0.20;;
49041;SDS011;34859;51.608;11.462;2022-08-06T15:12:48;0.82;;;0.20;;
49041;SDS011;34859;51.608;11.462;2022-08-06T15:15:32;0.63;;;0.20;;
49041;SDS011;34859;51.608;11.462;2022-08-06T15:18:16;0.20;;;0.10;;
49041;SDS011;34859;51.608;11.462;2022-08-06T15:21:00;0.60;;;0.20;;
49041;SDS011;34859;51.608;11.462;2022-08-06T15:23:45;0.50;;;0.10;;
49041;SDS011;34859;51.608;11.462;2022-08-06T15:26:29;0.43;;;0.20;;
49041;SDS011;34859;51.608;11.462;2022-08-06T15:29:13;0.38;;;0.30;;
49041;SDS011;34859;51.608;11.462;2022-08-06T15:31:57;0.57;;;0.10;;
49041;SDS011;34859;51.608;11.462;2022-08-06T15:34:41;1.27;;;0.20;;
49041;SDS011;34859;51.608;11.462;2022-08-06T15:37:26;0.20;;;0.13;;
49041;SDS011;34859;51.608;11.462;2022-08-06T15:40:10;1.13;;;0.20;;
49041;SDS011;34859;51.608;11.462;2022-08-06T15:42:51;0.20;;;0.10;;
49041;SDS011;34859;51.608;11.462;2022-08-06T15:45:35;0.60;;;0.20;;
49041;SDS011;34859;51.608;11.462;2022-08-06T15:48:19;1.05;;;0.30;;
49041;SDS011;34859;51.608;11.462;2022-08-06T15:51:08;0.30;;;0.10;;
49041;SDS011;34859;51.608;11.462;2022-08-06T15:53:52;1.60;;;0.20;;
49041;SDS011;34859;51.608;11.462;2022-08-06T15:56:37;1.33;;;0.20;;
49041;SDS011;34859;51.608;11.462;2022-08-06T15:59:21;0.32;;;0.10;;
49041;SDS011;34859;51.608;11.462;2022-08-06T16:02:02;2.38;;;0.10;;
49041;SDS011;34859;51.608;11.462;2022-08-06T16:04:46;0.10;;;0.10;;
49041;SDS011;34859;51.608;11.462;2022-08-06T16:07:28;0.43;;;0.20;;
49041;SDS011;34859;51.608;11.462;2022-08-06T16:10:12;1.00;;;0.10;;
49041;SDS011;34859;51.608;11.462;2022-08-06T16:12:57;0.10;;;0.10;;
49041;SDS011;34859;51.608;11.462;2022-08-06T16:15:42;0.65;;;0.10;;
49041;SDS011;34859;51.608;11.462;2022-08-06T16:18:27;3.05;;;0.20;;
49041;SDS011;34859;51.608;11.462;2022-08-06T16:21:15;0.63;;;0.25;;
49041;SDS011;34859;51.608;11.462;2022-08-06T16:23:59;0.20;;;0.20;;
49041;SDS011;34859;51.608;11.462;2022-08-06T16:26:45;0.10;;;0.10;;
49041;SDS011;34859;51.608;11.462;2022-08-06T16:29:30;1.65;;;0.20;;
49041;SDS011;34859;51.608;11.462;2022-08-06T16:32:15;0.20;;;0.10;;
49041;SDS011;34859;51.608;11.462;2022-08-06T16:34:58;0.30;;;0.10;;
49041;SDS011;34859;51.608;11.462;2022-08-06T16:37:43;0.30;;;0.10;;
49041;SDS011;34859;51.608;11.462;2022-08-06T16:40:24;1.25;;;0.20;;
49041;SDS011;34859;51.608;11.462;2022-08-06T16:43:09;1.88;;;0.20;;
49041;SDS011;34859;51.608;11.462;2022-08-06T16:45:50;0.00;;;0.00;;
49041;SDS011;34859;51.608;11.462;2022-08-06T16:48:35;1.98;;;0.30;;
49041;SDS011;34859;51.608;11.462;2022-08-06T16:51:19;1.93;;;0.30;;
49041;SDS011;34859;51.608;11.462;2022-08-06T16:54:03;0.10;;;0.10;;
49041;SDS011;34859;51.608;11.462;2022-08-06T16:56:47;0.17;;;0.17;;
49041;SDS011;34859;51.608;11.462;2022-08-06T16:59:32;0.60;;;0.10;;
49041;SDS011;34859;51.608;11.462;2022-08-06T17:02:16;0.30;;;0.15;;
49041;SDS011;34859;51.608;11.462;2022-08-06T17:05:19;0.63;;;0.10;;
49041;SDS011;34859;51.608;11.462;2022-08-06T17:08:03;0.70;;;0.20;;
49041;SDS011;34859;51.608;11.462;2022-08-06T17:10:47;0.10;;;0.03;;
49041;SDS011;34859;51.608;11.462;2022-08-06T17:13:31;0.73;;;0.13;;
49041;SDS011;34859;51.608;11.462;2022-08-06T17:16:15;0.73;;;0.20;;
49041;SDS011;34859;51.608;11.462;2022-08-06T17:18:59;0.77;;;0.13;;
49041;SDS011;34859;51.608;11.462;2022-08-06T17:21:44;1.27;;;0.25;;
49041;SDS011;34859;51.608;11.462;2022-08-06T17:24:29;0.22;;;0.20;;
49041;SDS011;34859;51.608;11.462;2022-08-06T17:27:14;0.35;;;0.30;;
49041;SDS011;34859;51.608;11.462;2022-08-06T17:29:58;1.40;;;0.30;;
49041;SDS011;34859;51.608;11.462;2022-08-06T17:32:40;0.90;;;0.20;;
49041;SDS011;34859;51.608;11.462;2022-08-06T17:38:08;0.85;;;0.32;;